Arcadia, Michigan
Current Conditions -  °F | °C
As of 9:54 PM on Wednesday 22 Oct 2014 (Local Time) from KFKS Reporting Station
Clear Clear  
Wind Chill: 32°   Ceiling: Unl
Heat Index: 32°   Visibility: 10mi
Dew Point: 29°   Wind: 0mph
Humidity: 90%   Direction: NA
Pressure: 30.28"   Gusts: NA
Location:  44.49°N, 86.23°W
Report Text: KFKS 230154Z AUTO 00000KT 10SM CLR 00/M01 A3028 RMK AO2 T00001015
Loading
Personal Weather Stations






























Interactive Weather Map New forecast layout! Learn more

10-Day Weather Forecast

Advertisements
Track Severe Weather on mobile